createdAt,value
2023-01-13T00:00:09.500Z,75.72
2023-01-13T00:02:18.399Z,75.92
2023-01-13T00:02:50.674Z,75.90
2023-01-13T00:03:23.120Z,75.51
2023-01-13T00:03:58.106Z,75.69
2023-01-13T00:04:30.322Z,75.87
2023-01-13T00:05:02.515Z,75.75
2023-01-13T00:05:37.306Z,75.83
2023-01-13T00:06:35.136Z,75.48
2023-01-13T00:08:24.821Z,75.72
2023-01-13T00:08:57.943Z,75.81
2023-01-13T00:09:30.103Z,76.07
2023-01-13T00:10:04.872Z,75.97
2023-01-13T00:10:37.138Z,76.40
2023-01-13T00:11:10.385Z,76.26
2023-01-13T00:11:47.817Z,75.91
2023-01-13T00:12:20.337Z,76.14
2023-01-13T00:12:53.687Z,76.28
2023-01-13T00:13:29.471Z,75.80
2023-01-13T00:14:14.430Z,76.19
2023-01-13T00:14:46.718Z,76.17
2023-01-13T00:15:21.491Z,75.87
2023-01-13T00:15:59.021Z,76.16
2023-01-13T00:16:33.162Z,76.03
2023-01-13T00:17:08.133Z,75.84
2023-01-13T00:17:40.406Z,76.03
2023-01-13T00:18:12.556Z,75.88
2023-01-13T00:18:48.135Z,75.98
2023-01-13T00:19:35.293Z,76.30
2023-01-13T00:20:12.504Z,76.37
2023-01-13T00:20:44.666Z,76.28
2023-01-13T00:21:19.505Z,76.26
2023-01-13T00:21:54.336Z,76.15
2023-01-13T00:22:26.560Z,76.50
2023-01-13T00:23:03.876Z,76.59
2023-01-13T00:23:58.368Z,76.31
2023-01-13T00:24:30.592Z,76.27
2023-01-13T00:25:07.782Z,76.44
2023-01-13T00:25:39.916Z,76.14
2023-01-13T00:26:13.802Z,76.43
2023-01-13T00:26:48.639Z,76.40
2023-01-13T00:27:25.120Z,76.27
2023-01-13T00:27:57.344Z,76.66
2023-01-13T00:28:32.675Z,76.20
2023-01-13T00:29:07.421Z,76.28
2023-01-13T00:29:39.582Z,76.29
2023-01-13T00:30:15.482Z,76.34
2023-01-13T00:30:47.941Z,76.37
2023-01-13T00:31:21.403Z,76.36
2023-01-13T00:31:56.133Z,76.39
2023-01-13T00:32:28.611Z,76.44
2023-01-13T00:33:00.901Z,75.97
2023-01-13T00:33:33.180Z,76.40
2023-01-13T00:34:08.080Z,76.01
2023-01-13T00:34:40.189Z,76.39
2023-01-13T00:35:12.311Z,76.10
2023-01-13T00:38:26.492Z,76.23
2023-01-13T00:38:59.568Z,76.28
2023-01-13T00:39:31.737Z,76.09
2023-01-13T00:40:06.784Z,76.02
2023-01-13T00:45:20.479Z,76.75
2023-01-13T00:45:52.784Z,76.43
2023-01-13T00:46:25.017Z,76.47
2023-01-13T00:46:59.744Z,76.36
2023-01-13T00:47:34.600Z,76.79
2023-01-13T00:48:07.033Z,76.99
2023-01-13T00:48:42.285Z,77.11
2023-01-13T00:49:14.564Z,77.01
2023-01-13T00:49:46.795Z,76.76
2023-01-13T00:50:21.734Z,76.59
2023-01-13T00:50:57.673Z,76.56
2023-01-13T00:51:30.024Z,76.56
2023-01-13T00:52:04.724Z,76.49
2023-01-13T00:52:36.862Z,76.87
2023-01-13T00:53:09.087Z,76.67
2023-01-13T00:53:46.027Z,76.75
2023-01-13T00:54:18.896Z,76.50
2023-01-13T00:54:54.047Z,76.59
2023-01-13T00:55:29.989Z,76.49
2023-01-13T00:56:03.777Z,76.68
2023-01-13T00:56:40.808Z,76.38
2023-01-13T00:57:16.185Z,76.11
2023-01-13T00:57:48.354Z,76.51
2023-01-13T00:58:20.498Z,76.49
2023-01-13T00:58:57.203Z,76.12
2023-01-13T00:59:29.332Z,76.17
2023-01-13T01:00:10.623Z,76.52
2023-01-13T01:00:48.217Z,76.47
2023-01-13T01:01:22.428Z,76.66
2023-01-13T01:01:54.733Z,76.47
2023-01-13T01:02:29.619Z,76.23
2023-01-13T01:03:01.901Z,76.79
2023-01-13T01:03:34.204Z,76.61
2023-01-13T01:04:09.417Z,76.66
2023-01-13T01:04:41.556Z,76.91
2023-01-13T01:05:13.669Z,76.34
2023-01-13T01:05:48.505Z,76.32
2023-01-13T01:06:22.629Z,76.61
2023-01-13T01:06:54.845Z,76.72
2023-01-13T01:07:29.557Z,76.50
2023-01-13T01:08:02.051Z,76.93
2023-01-13T01:13:24.942Z,76.94
2023-01-13T01:13:58.927Z,76.51
2023-01-13T01:14:32.427Z,76.78
2023-01-13T01:15:10.204Z,76.91
2023-01-13T01:15:44.961Z,76.77
2023-01-13T01:16:18.550Z,76.78
2023-01-13T01:16:53.413Z,76.90
2023-01-13T01:17:25.610Z,76.54
2023-01-13T01:17:57.744Z,76.56
2023-01-13T01:18:32.539Z,76.40
2023-01-13T01:19:05.249Z,76.59
2023-01-13T01:19:40.212Z,76.51
2023-01-13T01:20:13.061Z,76.39
2023-01-13T01:24:16.786Z,76.60
2023-01-13T01:24:48.964Z,77.07
2023-01-13T01:25:21.115Z,76.89
2023-01-13T01:25:55.800Z,76.76
2023-01-13T01:26:29.507Z,76.85
2023-01-13T01:27:04.295Z,77.04
2023-01-13T01:27:37.591Z,76.63
2023-01-13T01:28:09.861Z,76.90
2023-01-13T01:28:42.533Z,76.67
2023-01-13T01:29:18.251Z,77.10
2023-01-13T01:29:50.507Z,76.68
2023-01-13T01:30:22.666Z,76.88
2023-01-13T01:31:00.505Z,76.95
2023-01-13T01:31:33.749Z,76.90
2023-01-13T01:32:09.214Z,76.96
2023-01-13T01:32:41.407Z,77.05
2023-01-13T01:33:13.525Z,77.24
2023-01-13T01:33:47.519Z,77.02
2023-01-13T01:34:22.299Z,76.76
2023-01-13T01:34:57.512Z,77.09
2023-01-13T01:35:29.638Z,77.01
2023-01-13T01:36:26.928Z,76.80
2023-01-13T01:36:59.058Z,77.06
2023-01-13T01:37:31.260Z,76.84
2023-01-13T01:38:06.046Z,76.73
2023-01-13T01:38:38.934Z,77.00
2023-01-13T01:39:11.373Z,76.82
2023-01-13T01:39:46.266Z,76.72
2023-01-13T01:40:18.690Z,77.12
2023-01-13T01:40:50.869Z,77.17
2023-01-13T01:41:29.669Z,77.46
2023-01-13T01:42:16.819Z,77.26
2023-01-13T01:43:04.056Z,77.40
2023-01-13T01:44:06.005Z,77.36
2023-01-13T01:45:02.052Z,77.58
2023-01-13T01:45:37.082Z,77.27
2023-01-13T01:46:11.794Z,77.42
2023-01-13T01:46:45.208Z,77.46
2023-01-13T01:47:38.917Z,77.48
2023-01-13T01:48:11.903Z,77.52
2023-01-13T01:48:44.150Z,77.70
2023-01-13T01:49:22.500Z,77.49
2023-01-13T01:49:56.735Z,77.17
2023-01-13T01:50:32.842Z,77.50
2023-01-13T01:51:22.659Z,77.35
2023-01-13T01:51:58.347Z,77.73
2023-01-13T01:52:34.070Z,77.34
2023-01-13T01:53:13.034Z,77.47
2023-01-13T01:53:45.409Z,77.42
2023-01-13T01:55:55.769Z,77.34
2023-01-13T01:56:29.493Z,77.15
2023-01-13T01:57:05.088Z,77.40
2023-01-13T01:57:47.505Z,77.43
2023-01-13T01:58:25.175Z,77.50
2023-01-13T01:59:00.014Z,77.55
2023-01-13T01:59:35.866Z,77.62
2023-01-13T02:00:13.367Z,77.63
2023-01-13T02:00:48.126Z,77.43
2023-01-13T02:01:23.032Z,77.35
2023-01-13T02:01:55.450Z,77.10
2023-01-13T02:02:31.009Z,77.35
2023-01-13T02:03:04.449Z,77.50
2023-01-13T02:03:39.857Z,77.29
2023-01-13T02:04:17.949Z,77.61
2023-01-13T02:04:53.536Z,77.34
2023-01-13T02:05:25.693Z,77.56
2023-01-13T02:06:00.419Z,77.57
2023-01-13T02:06:32.801Z,77.52
2023-01-13T02:07:05.301Z,77.70
2023-01-13T02:07:44.450Z,77.48
2023-01-13T02:08:18.545Z,77.55
2023-01-13T02:08:53.524Z,77.71
2023-01-13T02:09:29.117Z,77.93
2023-01-13T02:10:05.505Z,77.95
2023-01-13T02:10:39.966Z,77.75
2023-01-13T02:11:44.781Z,77.98
2023-01-13T02:12:34.920Z,77.80
2023-01-13T02:13:10.699Z,77.48
2023-01-13T02:13:42.933Z,77.52
2023-01-13T02:14:15.413Z,77.64
2023-01-13T02:14:53.828Z,77.82
2023-01-13T02:15:34.426Z,77.61
2023-01-13T02:16:27.514Z,77.50
2023-01-13T02:17:16.366Z,77.78
2023-01-13T02:18:11.590Z,77.55
2023-01-13T02:18:56.203Z,77.70
2023-01-13T02:20:00.925Z,77.53
2023-01-13T02:20:50.743Z,77.47
2023-01-13T02:21:54.904Z,77.69
2023-01-13T02:22:44.387Z,77.48
2023-01-13T02:24:02.129Z,77.25
2023-01-13T02:24:56.943Z,77.59
2023-01-13T02:26:02.058Z,77.56
2023-01-13T02:27:08.148Z,78.01
2023-01-13T02:28:03.260Z,78.29
2023-01-13T02:29:16.576Z,77.89
2023-01-13T02:30:28.863Z,78.18
2023-01-13T02:31:22.658Z,78.08
2023-01-13T02:32:06.321Z,78.25
2023-01-13T02:32:52.418Z,78.14
2023-01-13T02:33:36.952Z,77.94
2023-01-13T02:34:12.800Z,78.05
2023-01-13T02:34:57.051Z,77.74
2023-01-13T02:35:40.323Z,77.77
2023-01-13T02:36:20.157Z,78.06
2023-01-13T02:37:01.045Z,77.75
2023-01-13T02:37:39.339Z,77.69
2023-01-13T02:38:15.534Z,77.76
2023-01-13T02:38:57.584Z,77.76
2023-01-13T02:39:38.620Z,77.91
2023-01-13T02:40:17.489Z,77.65
2023-01-13T02:40:59.546Z,77.53
2023-01-13T02:41:53.913Z,77.48
2023-01-13T02:42:47.515Z,77.67
2023-01-13T02:43:41.388Z,77.78
2023-01-13T02:44:20.289Z,77.61
2023-01-13T02:44:59.327Z,77.52
2023-01-13T02:45:40.567Z,77.45
2023-01-13T02:46:18.409Z,77.70
2023-01-13T02:46:55.264Z,77.49
2023-01-13T02:47:33.326Z,77.66
2023-01-13T02:48:08.098Z,77.60
2023-01-13T02:48:42.678Z,77.19
2023-01-13T02:49:24.299Z,77.53
2023-01-13T02:50:02.301Z,77.23
2023-01-13T02:50:42.155Z,77.28
2023-01-13T02:51:17.686Z,77.38
2023-01-13T02:51:54.259Z,77.24
2023-01-13T02:52:34.533Z,77.38
2023-01-13T02:53:13.074Z,77.34
2023-01-13T02:53:51.067Z,77.20
2023-01-13T02:54:31.299Z,76.96
2023-01-13T02:57:18.794Z,76.81
2023-01-13T02:57:58.770Z,76.84
2023-01-13T02:58:32.782Z,76.84
2023-01-13T02:59:08.383Z,76.71
2023-01-13T02:59:41.764Z,77.04
2023-01-13T03:00:21.299Z,77.04
2023-01-13T03:00:54.272Z,76.80
2023-01-13T03:01:29.731Z,76.76
2023-01-13T03:02:05.702Z,76.72
2023-01-13T03:02:38.796Z,76.67
2023-01-13T03:03:10.928Z,76.79
2023-01-13T03:03:47.034Z,76.91
2023-01-13T03:04:45.867Z,76.67
2023-01-13T03:05:20.575Z,76.33
2023-01-13T03:06:14.182Z,76.39
2023-01-13T03:07:01.686Z,76.75
2023-01-13T03:08:05.078Z,76.66
2023-01-13T03:10:17.825Z,76.51
2023-01-13T03:11:09.016Z,76.36
2023-01-13T03:11:58.165Z,76.21
2023-01-13T03:12:42.629Z,76.39
2023-01-13T03:13:59.511Z,76.25
2023-01-13T03:14:44.221Z,76.25
2023-01-13T03:15:28.564Z,76.27
2023-01-13T03:16:09.810Z,76.10
2023-01-13T03:19:24.877Z,76.09
2023-01-13T03:20:00.457Z,76.40
2023-01-13T03:20:39.603Z,76.51
2023-01-13T03:21:21.284Z,76.39
2023-01-13T03:21:57.567Z,76.21
2023-01-13T03:24:16.749Z,76.48
2023-01-13T03:24:55.863Z,76.13
2023-01-13T03:25:36.053Z,76.09
2023-01-13T03:26:14.020Z,76.22
2023-01-13T03:26:51.848Z,76.29
2023-01-13T03:27:29.133Z,75.70
2023-01-13T03:28:04.946Z,76.03
2023-01-13T03:28:44.169Z,76.06
2023-01-13T03:29:20.735Z,76.13
2023-01-13T03:29:59.243Z,75.85
2023-01-13T03:30:43.729Z,76.04
2023-01-13T03:31:22.921Z,76.28
2023-01-13T03:31:59.921Z,76.18
2023-01-13T03:32:38.480Z,76.32
2023-01-13T03:33:16.343Z,76.07
2023-01-13T03:33:55.500Z,75.96
2023-01-13T03:35:45.713Z,76.14
2023-01-13T03:36:25.867Z,76.08
2023-01-13T03:37:01.773Z,76.23
2023-01-13T03:37:37.747Z,75.98
2023-01-13T03:38:16.289Z,75.92
2023-01-13T03:38:52.243Z,76.04
2023-01-13T03:39:41.924Z,76.20
2023-01-13T03:40:20.235Z,76.11
2023-01-13T03:41:33.433Z,76.11
2023-01-13T03:42:13.531Z,75.81
2023-01-13T03:43:04.273Z,75.77
2023-01-13T03:43:54.103Z,75.58
2023-01-13T03:44:32.863Z,75.83
2023-01-13T03:45:51.788Z,75.59
2023-01-13T03:46:35.059Z,76.06
2023-01-13T03:47:14.414Z,75.87
2023-01-13T03:47:53.562Z,75.68
2023-01-13T03:48:28.214Z,75.97
2023-01-13T03:49:03.259Z,75.72
2023-01-13T03:49:44.055Z,75.98
2023-01-13T03:50:20.884Z,75.51
2023-01-13T03:50:57.255Z,75.68
2023-01-13T03:51:35.789Z,75.64
2023-01-13T03:55:09.222Z,75.74
2023-01-13T03:55:47.280Z,75.66
2023-01-13T03:56:25.616Z,75.47
2023-01-13T03:57:05.224Z,75.79
2023-01-13T03:57:43.756Z,75.65
2023-01-13T03:58:21.620Z,75.70
2023-01-13T03:58:57.223Z,75.34
2023-01-13T03:59:33.315Z,75.81
2023-01-13T04:00:10.534Z,75.55
2023-01-13T04:02:40.615Z,75.53
2023-01-13T04:03:18.426Z,75.37
2023-01-13T04:03:59.665Z,75.22
2023-01-13T04:04:39.866Z,75.04
2023-01-13T04:05:14.593Z,75.33
2023-01-13T04:05:55.352Z,74.96
2023-01-13T04:06:36.035Z,75.08
2023-01-13T04:07:16.388Z,74.87
2023-01-13T04:07:58.966Z,74.86
2023-01-13T04:08:34.345Z,74.90
2023-01-13T04:09:14.766Z,74.86
2023-01-13T04:09:52.060Z,75.37
2023-01-13T04:10:28.073Z,75.20
2023-01-13T04:11:05.764Z,75.07
2023-01-13T04:11:45.658Z,74.97
2023-01-13T04:12:24.046Z,75.22
2023-01-13T04:13:01.871Z,74.93
2023-01-13T04:13:41.964Z,74.95
2023-01-13T04:14:25.343Z,75.04
2023-01-13T04:15:00.365Z,74.79
2023-01-13T04:15:39.048Z,74.71
2023-01-13T04:16:29.640Z,74.75
2023-01-13T04:17:24.763Z,75.05
2023-01-13T04:19:35.388Z,74.68
2023-01-13T04:20:08.608Z,74.56
2023-01-13T04:20:41.627Z,74.58
2023-01-13T04:21:39.687Z,74.52
2023-01-13T04:22:11.963Z,74.66
2023-01-13T04:22:44.117Z,74.68
2023-01-13T04:23:20.049Z,74.24
2023-01-13T04:23:52.165Z,74.72
2023-01-13T04:24:24.247Z,74.74
2023-01-13T04:24:58.933Z,74.77
2023-01-13T04:25:31.141Z,74.67
2023-01-13T04:26:03.258Z,74.63
2023-01-13T04:26:38.026Z,74.95
2023-01-13T04:27:10.139Z,74.64
2023-01-13T04:27:42.216Z,74.27
2023-01-13T04:28:17.879Z,74.35
2023-01-13T04:28:50.097Z,74.55
2023-01-13T04:29:22.274Z,74.70
2023-01-13T04:29:56.950Z,74.33
2023-01-13T04:30:29.161Z,74.72
2023-01-13T04:31:03.973Z,74.36
2023-01-13T04:31:39.304Z,74.55
2023-01-13T04:32:11.383Z,74.43
2023-01-13T04:32:59.978Z,74.37
2023-01-13T04:33:32.259Z,74.52
2023-01-13T04:34:04.374Z,73.99
2023-01-13T04:34:43.495Z,73.95
2023-01-13T04:35:32.550Z,74.22
2023-01-13T04:36:10.491Z,74.01
2023-01-13T04:36:45.233Z,74.52
2023-01-13T04:37:32.289Z,74.33
2023-01-13T04:38:05.996Z,74.26
2023-01-13T04:38:40.774Z,74.40
2023-01-13T04:39:13.117Z,74.17
2023-01-13T04:39:46.572Z,74.34
2023-01-13T04:40:23.539Z,74.39
2023-01-13T04:41:13.676Z,74.12
2023-01-13T04:42:03.452Z,74.01
2023-01-13T04:42:38.149Z,74.34
2023-01-13T04:43:21.743Z,74.17
2023-01-13T04:43:53.856Z,74.19
2023-01-13T04:44:35.224Z,74.20
2023-01-13T04:45:10.067Z,74.28
2023-01-13T04:45:42.546Z,74.29
2023-01-13T04:46:17.905Z,73.92
2023-01-13T04:46:53.107Z,74.40
2023-01-13T04:47:25.269Z,74.15
2023-01-13T04:47:57.680Z,73.99
2023-01-13T04:48:32.333Z,74.15
2023-01-13T04:49:04.494Z,73.77
2023-01-13T04:49:39.173Z,74.16
2023-01-13T04:50:14.397Z,73.94
2023-01-13T04:50:46.529Z,74.07
2023-01-13T04:51:21.203Z,74.16
2023-01-13T04:51:53.462Z,74.04
2023-01-13T04:52:25.607Z,74.01
2023-01-13T04:52:58.933Z,73.83
2023-01-13T04:53:33.661Z,73.83
2023-01-13T04:54:06.033Z,73.95
2023-01-13T04:54:38.131Z,73.81
2023-01-13T04:55:10.839Z,73.78
2023-01-13T04:55:47.934Z,73.65
2023-01-13T04:56:20.056Z,73.63
2023-01-13T04:56:52.250Z,73.73
2023-01-13T04:57:26.933Z,73.86
2023-01-13T04:58:03.511Z,73.78
2023-01-13T04:58:38.174Z,73.89
2023-01-13T04:59:11.297Z,74.21
2023-01-13T04:59:43.412Z,73.87
2023-01-13T05:00:20.161Z,73.63
2023-01-13T05:00:52.348Z,73.76
2023-01-13T05:01:24.642Z,73.89
2023-01-13T05:01:59.452Z,73.75
2023-01-13T05:03:48.194Z,74.12
2023-01-13T05:04:20.422Z,74.07
2023-01-13T05:04:57.815Z,74.17
2023-01-13T05:05:31.228Z,74.15
2023-01-13T05:06:06.037Z,74.17
2023-01-13T05:06:38.154Z,74.33
2023-01-13T05:07:10.282Z,74.14
2023-01-13T05:07:44.986Z,74.08
2023-01-13T05:08:17.372Z,74.13
2023-01-13T05:08:51.136Z,74.29
2023-01-13T05:09:28.674Z,74.09
2023-01-13T05:10:02.153Z,74.08
2023-01-13T05:10:34.266Z,74.10
2023-01-13T05:11:29.400Z,73.91
2023-01-13T05:12:16.742Z,74.13
2023-01-13T05:13:04.049Z,74.37
2023-01-13T05:13:51.357Z,73.98
2023-01-13T05:14:38.801Z,74.28
2023-01-13T05:15:27.584Z,74.29
2023-01-13T05:16:18.944Z,74.10
2023-01-13T05:17:04.687Z,74.44
2023-01-13T05:17:37.153Z,74.59
2023-01-13T05:18:09.892Z,74.24
2023-01-13T05:18:44.935Z,74.12
2023-01-13T05:19:17.106Z,74.13
2023-01-13T05:19:49.391Z,74.15
2023-01-13T05:20:27.327Z,74.27
2023-01-13T05:20:59.656Z,73.98
2023-01-13T05:21:46.835Z,73.92
2023-01-13T05:22:34.143Z,74.05
2023-01-13T05:23:33.548Z,74.11
2023-01-13T05:24:21.373Z,74.21
2023-01-13T05:25:08.663Z,74.13
2023-01-13T05:25:46.435Z,74.25
2023-01-13T05:26:18.813Z,74.11
2023-01-13T05:26:51.187Z,74.02
2023-01-13T05:27:26.033Z,74.14
2023-01-13T05:27:59.845Z,74.22
2023-01-13T05:28:35.944Z,74.19
2023-01-13T05:29:08.185Z,74.23
2023-01-13T05:29:43.127Z,73.96
2023-01-13T05:30:19.033Z,73.83
2023-01-13T05:30:52.737Z,74.45
2023-01-13T05:31:27.556Z,74.35
2023-01-13T07:13:41.500Z,76.52
2023-01-13T07:14:28.419Z,76.35
2023-01-13T07:15:15.825Z,76.76
2023-01-13T07:15:59.031Z,76.35
2023-01-13T07:16:31.244Z,76.34
2023-01-13T07:17:03.466Z,76.36
2023-01-13T07:17:38.262Z,76.32
2023-01-13T07:18:10.372Z,76.47
2023-01-13T07:18:45.102Z,76.54
2023-01-13T07:19:23.315Z,76.62
2023-01-13T07:19:55.427Z,76.54
2023-01-13T07:20:34.028Z,76.78
2023-01-13T07:21:08.331Z,76.92
2023-01-13T07:21:54.381Z,77.04
2023-01-13T07:23:01.321Z,76.76
2023-01-13T07:23:36.588Z,76.86
2023-01-13T07:24:11.424Z,76.83
2023-01-13T07:24:43.549Z,76.99
2023-01-13T07:25:15.708Z,77.16
2023-01-13T07:25:50.505Z,76.81
2023-01-13T07:26:22.587Z,76.89
2023-01-13T07:26:59.782Z,76.92
2023-01-13T07:27:38.564Z,76.89
2023-01-13T07:28:13.448Z,76.88
2023-01-13T07:28:48.085Z,76.83
2023-01-13T07:29:22.909Z,76.77
2023-01-13T07:29:55.019Z,76.87
2023-01-13T07:30:27.124Z,76.84
2023-01-13T07:31:02.391Z,76.51
2023-01-13T07:31:34.554Z,76.62
2023-01-13T07:32:08.048Z,76.53
2023-01-13T07:32:55.397Z,76.70
2023-01-13T07:33:33.144Z,76.41
2023-01-13T07:34:05.537Z,76.39
2023-01-13T07:34:40.272Z,76.76
2023-01-13T07:35:12.495Z,76.62
2023-01-13T07:35:44.674Z,76.58
2023-01-13T07:36:19.400Z,76.50
2023-01-13T07:37:08.428Z,76.06
2023-01-13T07:37:46.367Z,76.32
2023-01-13T07:38:18.512Z,75.93
2023-01-13T07:39:09.150Z,76.34
2023-01-13T07:39:41.045Z,75.87
2023-01-13T07:40:13.482Z,75.83
2023-01-13T07:40:48.240Z,75.92
2023-01-13T07:41:35.356Z,76.30
2023-01-13T07:43:38.666Z,75.87
2023-01-13T07:44:13.476Z,75.80
2023-01-13T07:44:49.050Z,76.06
2023-01-13T07:45:21.149Z,75.70
2023-01-13T07:45:58.957Z,75.73
2023-01-13T07:46:31.394Z,75.58
2023-01-13T07:47:06.352Z,75.76
2023-01-13T07:47:54.037Z,75.55
2023-01-13T07:48:28.837Z,75.43
2023-01-13T07:49:00.950Z,75.42
2023-01-13T07:49:33.305Z,75.21
2023-01-13T07:50:09.229Z,75.15
2023-01-13T07:50:44.024Z,75.17
2023-01-13T07:51:19.131Z,75.15
2023-01-13T07:51:51.248Z,75.24
2023-01-13T07:52:23.366Z,75.15
2023-01-13T07:53:00.873Z,74.82
2023-01-13T07:53:33.316Z,75.06
2023-01-13T07:54:08.204Z,75.07
2023-01-13T07:54:41.377Z,74.84
2023-01-13T07:55:13.819Z,74.73
2023-01-13T07:55:48.494Z,74.92
2023-01-13T07:56:20.659Z,74.88
2023-01-13T07:56:52.871Z,74.94
2023-01-13T07:57:27.623Z,74.91
2023-01-13T07:57:59.767Z,74.49
2023-01-13T07:58:36.004Z,74.56
2023-01-13T07:59:08.164Z,74.89
2023-01-13T07:59:45.534Z,74.52
2023-01-13T08:00:19.083Z,74.35
2023-01-13T08:00:51.622Z,74.72
2023-01-13T08:01:27.841Z,74.39
2023-01-13T08:02:00.395Z,74.67
2023-01-13T08:02:35.267Z,74.30
2023-01-13T08:03:07.535Z,74.12
2023-01-13T08:03:42.507Z,74.50
2023-01-13T08:04:14.736Z,74.50
2023-01-13T08:04:49.388Z,74.33
2023-01-13T08:05:21.503Z,74.32
2023-01-13T08:05:53.638Z,74.01
2023-01-13T08:06:28.750Z,74.28
2023-01-13T08:07:00.823Z,74.02
2023-01-13T08:07:35.884Z,74.24
2023-01-13T08:08:08.059Z,74.07
2023-01-13T08:08:43.154Z,74.08
2023-01-13T08:09:15.303Z,74.15
2023-01-13T08:09:47.465Z,74.23
2023-01-13T08:10:22.393Z,74.03
2023-01-13T08:10:54.634Z,74.11
2023-01-13T08:11:29.651Z,73.86
2023-01-13T08:12:16.760Z,74.11
2023-01-13T08:13:04.089Z,74.19
2023-01-13T08:13:37.174Z,74.10
2023-01-13T08:14:11.940Z,74.02
2023-01-13T08:14:46.780Z,74.14
2023-01-13T08:16:59.879Z,74.41
2023-01-13T08:17:32.061Z,74.18
2023-01-13T08:18:07.038Z,74.50
2023-01-13T08:18:41.199Z,74.26
2023-01-13T08:19:16.166Z,74.40
2023-01-13T08:19:48.568Z,74.31
2023-01-13T08:20:20.731Z,74.23
2023-01-13T08:20:56.006Z,74.44
2023-01-13T08:21:28.435Z,74.41
2023-01-13T08:22:00.562Z,74.50
2023-01-13T08:22:35.631Z,74.14
2023-01-13T08:23:10.980Z,74.26
2023-01-13T08:23:46.984Z,74.03
2023-01-13T08:24:19.071Z,74.17
2023-01-13T08:24:51.255Z,74.15
2023-01-13T08:25:26.390Z,73.89
2023-01-13T08:27:35.406Z,74.23
2023-01-13T08:28:08.198Z,74.18
2023-01-13T08:28:43.215Z,74.23
2023-01-13T08:29:15.600Z,73.82
2023-01-13T08:29:50.308Z,73.77
2023-01-13T08:30:25.571Z,74.17
2023-01-13T08:31:00.003Z,73.78
2023-01-13T08:31:34.976Z,74.07
2023-01-13T08:32:07.104Z,73.92
2023-01-13T08:32:39.290Z,73.77
2023-01-13T08:33:15.634Z,74.05
2023-01-13T08:33:50.963Z,74.22
2023-01-13T08:34:28.146Z,74.21
2023-01-13T08:35:00.302Z,74.22
2023-01-13T08:35:32.588Z,74.12
2023-01-13T08:36:09.708Z,74.17
2023-01-13T08:36:41.933Z,73.85
2023-01-13T08:37:14.094Z,74.16
2023-01-13T08:37:50.009Z,74.18
2023-01-13T08:38:23.376Z,74.30
2023-01-13T08:38:58.097Z,73.85
2023-01-13T08:39:30.523Z,74.42
2023-01-13T08:40:02.726Z,74.01
2023-01-13T08:40:37.647Z,73.91
2023-01-13T08:41:10.685Z,74.27
2023-01-13T08:41:56.214Z,73.88
2023-01-13T08:42:33.811Z,74.07
2023-01-13T08:43:27.606Z,73.75
2023-01-13T08:44:21.700Z,74.19
2023-01-13T08:44:59.200Z,73.98
2023-01-13T08:45:31.937Z,74.02
2023-01-13T08:46:04.960Z,74.15
2023-01-13T08:46:40.125Z,73.62
2023-01-13T08:47:12.272Z,73.91
2023-01-13T08:47:44.805Z,73.69
2023-01-13T08:48:19.477Z,73.53
2023-01-13T08:48:51.732Z,73.30
2023-01-13T08:49:29.588Z,73.68
2023-01-13T08:53:55.122Z,73.45
2023-01-13T08:54:27.289Z,73.49
2023-01-13T08:54:59.433Z,73.41
2023-01-13T08:55:34.256Z,73.38
2023-01-13T08:56:11.013Z,73.15
2023-01-13T08:56:44.374Z,73.28
2023-01-13T08:57:24.507Z,73.38
2023-01-13T08:58:14.311Z,73.26
2023-01-13T08:58:49.881Z,73.08
2023-01-13T08:59:22.092Z,73.35
2023-01-13T08:59:59.417Z,73.35
2023-01-13T09:00:31.722Z,73.30
2023-01-13T09:01:08.777Z,73.32
2023-01-13T09:01:41.335Z,73.54
2023-01-13T09:02:23.539Z,73.16
2023-01-13T09:02:55.893Z,73.33
2023-01-13T09:03:30.641Z,73.22
2023-01-13T09:04:02.911Z,73.33
2023-01-13T09:04:40.395Z,73.31
2023-01-13T09:05:12.642Z,72.96
2023-01-13T09:05:50.158Z,73.12
2023-01-13T09:06:30.119Z,73.21
2023-01-13T09:07:07.550Z,72.91
2023-01-13T09:07:39.855Z,73.15
2023-01-13T09:08:15.340Z,73.20
2023-01-13T09:08:58.492Z,72.91
2023-01-13T09:09:33.232Z,73.08
2023-01-13T09:10:07.871Z,73.27
2023-01-13T09:10:43.171Z,73.29
2023-01-13T09:11:33.707Z,73.16
2023-01-13T09:12:21.377Z,73.47
2023-01-13T09:13:08.571Z,73.18
2023-01-13T09:13:40.686Z,72.77
2023-01-13T09:14:12.858Z,73.07
2023-01-13T09:14:50.516Z,72.89
2023-01-13T09:15:25.303Z,72.90
2023-01-13T09:16:00.164Z,72.67
2023-01-13T09:16:33.548Z,72.75
2023-01-13T09:17:05.811Z,72.54
2023-01-13T09:17:40.480Z,72.63
2023-01-13T09:18:13.605Z,72.41
2023-01-13T09:18:48.389Z,72.42
2023-01-13T09:19:20.518Z,72.52
2023-01-13T09:19:52.629Z,72.66
2023-01-13T09:20:28.056Z,72.80
2023-01-13T09:21:00.325Z,72.41
2023-01-13T09:21:38.123Z,72.38
2023-01-13T09:22:30.416Z,72.14
2023-01-13T09:24:15.753Z,72.65
2023-01-13T09:24:48.093Z,72.89
2023-01-13T09:25:22.926Z,72.70
2023-01-13T09:25:55.044Z,72.77
2023-01-13T09:26:27.232Z,72.68
2023-01-13T09:27:01.969Z,72.47
2023-01-13T09:27:34.115Z,72.52
2023-01-13T09:28:10.173Z,72.80
2023-01-13T09:28:42.399Z,72.37
2023-01-13T09:29:38.527Z,72.36
2023-01-13T09:30:11.980Z,72.19
2023-01-13T09:30:49.406Z,72.47
2023-01-13T09:31:21.758Z,72.11
2023-01-13T09:31:54.110Z,72.14
2023-01-13T09:32:43.876Z,72.28
2023-01-13T09:33:31.395Z,72.41
2023-01-13T09:34:19.790Z,72.69
2023-01-13T09:35:07.799Z,72.61
2023-01-13T09:36:05.691Z,72.56
2023-01-13T09:36:40.403Z,72.47
2023-01-13T09:37:12.768Z,72.42
2023-01-13T09:37:47.569Z,72.53
2023-01-13T09:38:19.668Z,72.77
2023-01-13T09:38:51.854Z,72.87
2023-01-13T09:39:26.614Z,72.47
2023-01-13T09:39:58.767Z,72.82
2023-01-13T09:40:33.528Z,72.46
2023-01-13T09:41:26.112Z,72.78
2023-01-13T09:42:18.975Z,72.84
2023-01-13T09:43:10.111Z,72.38
2023-01-13T09:43:54.245Z,72.20
2023-01-13T09:44:35.023Z,72.39
2023-01-13T09:45:12.402Z,72.45
2023-01-13T09:45:54.281Z,72.08
2023-01-13T09:46:47.418Z,72.26
2023-01-13T09:47:24.250Z,72.02
2023-01-13T09:48:07.686Z,71.84
2023-01-13T09:48:52.271Z,71.91
2023-01-13T09:49:29.808Z,72.00
2023-01-13T09:50:20.609Z,71.64
2023-01-13T09:51:03.395Z,71.86
2023-01-13T09:51:43.632Z,72.07
2023-01-13T09:52:19.428Z,72.01
2023-01-13T09:52:54.665Z,72.04
2023-01-13T09:53:30.692Z,71.79
2023-01-13T09:54:09.247Z,71.75
2023-01-13T09:54:46.694Z,71.81
2023-01-13T09:55:23.084Z,71.28
2023-01-13T09:55:55.717Z,71.71
2023-01-13T09:56:30.483Z,71.19
2023-01-13T09:57:02.656Z,71.58
2023-01-13T09:57:38.111Z,71.34
2023-01-13T09:58:16.891Z,71.43
2023-01-13T09:58:49.692Z,71.52
2023-01-13T09:59:21.847Z,71.21
2023-01-13T09:59:57.687Z,71.80
2023-01-13T10:00:38.716Z,71.32
2023-01-13T10:01:23.775Z,71.75
2023-01-13T10:02:03.881Z,71.46
2023-01-13T10:02:50.495Z,71.57
2023-01-13T10:03:25.733Z,71.43
2023-01-13T10:04:08.430Z,71.97
2023-01-13T10:04:41.447Z,72.01
2023-01-13T10:05:25.386Z,72.00
2023-01-13T10:06:04.705Z,71.92
2023-01-13T10:06:42.527Z,71.63
2023-01-13T10:07:15.075Z,71.84
2023-01-13T10:07:51.199Z,71.53
2023-01-13T10:08:29.532Z,71.57
2023-01-13T10:09:02.333Z,71.59
2023-01-13T10:09:48.695Z,71.20
2023-01-13T10:10:29.955Z,71.39
2023-01-13T10:11:33.076Z,71.24
2023-01-13T10:12:29.397Z,71.27
2023-01-13T10:13:20.177Z,71.27
2023-01-13T10:13:58.279Z,71.43
2023-01-13T10:14:38.181Z,71.08
2023-01-13T10:15:18.111Z,70.92
2023-01-13T10:16:08.025Z,71.37
2023-01-13T10:16:51.252Z,71.46
2023-01-13T10:17:31.227Z,71.89
2023-01-13T10:18:16.668Z,71.64
2023-01-13T10:19:00.888Z,72.19
2023-01-13T10:19:42.238Z,72.05
2023-01-13T10:20:19.054Z,72.19
2023-01-13T10:21:03.046Z,71.93
2023-01-13T10:22:00.951Z,71.88
2023-01-13T10:22:54.888Z,72.31
2023-01-13T10:23:41.104Z,71.89
2023-01-13T10:24:25.361Z,71.94
2023-01-13T10:25:21.291Z,71.91
2023-01-13T10:26:06.779Z,72.12
2023-01-13T10:26:48.625Z,72.15
2023-01-13T10:27:31.823Z,72.21
2023-01-13T10:28:10.758Z,71.90
2023-01-13T10:28:45.414Z,71.79
2023-01-13T10:29:24.834Z,71.75
2023-01-13T10:29:59.683Z,71.53
2023-01-13T10:30:35.636Z,71.37
2023-01-13T10:31:14.906Z,71.18
2023-01-13T10:31:49.620Z,71.28
2023-01-13T10:32:24.393Z,71.34
2023-01-13T10:32:58.860Z,71.28
2023-01-13T10:33:33.624Z,71.46
2023-01-13T10:34:05.766Z,71.32
2023-01-13T10:34:50.086Z,71.82